createdAt,value
2022-12-05T00:07:46.459Z,99062.85
2022-12-05T00:17:53.834Z,99057.59
2022-12-05T00:28:00.975Z,99050.58
2022-12-05T00:38:07.424Z,99044.63
2022-12-05T00:48:14.533Z,99030.66
2022-12-05T00:58:21.652Z,99026.58
2022-12-05T01:08:29.136Z,99036.80
2022-12-05T01:18:36.109Z,99030.82
2022-12-05T01:28:44.319Z,99031.67
2022-12-05T01:38:51.792Z,99020.21
2022-12-05T01:48:57.118Z,99006.13
2022-12-05T01:59:06.869Z,99006.44
2022-12-05T02:09:14.022Z,99008.42
2022-12-05T02:20:04.816Z,98995.70
2022-12-05T02:30:13.894Z,98992.77
2022-12-05T02:40:21.143Z,99002.50
2022-12-05T02:50:38.324Z,99008.05
2022-12-05T03:00:49.382Z,99007.17
2022-12-05T03:10:58.264Z,99006.17
2022-12-05T03:21:03.973Z,98996.52
2022-12-05T03:31:09.141Z,99010.22
2022-12-05T03:41:15.918Z,99014.03
2022-12-05T03:51:26.369Z,99008.29
2022-12-05T04:01:35.796Z,99003.71
2022-12-05T04:11:40.533Z,98997.95
2022-12-05T04:21:53.845Z,98986.29
2022-12-05T04:32:07.955Z,98979.98
2022-12-05T04:42:19.486Z,98974.83
2022-12-05T04:52:29.666Z,98970.05
2022-12-05T05:02:39.272Z,98958.13
2022-12-05T05:12:46.720Z,98944.69
2022-12-05T05:22:55.177Z,98958.10
2022-12-05T05:33:02.625Z,98955.23
2022-12-05T05:43:09.873Z,98954.40
2022-12-05T05:53:16.904Z,98956.17
2022-12-05T06:03:24.172Z,98949.07
2022-12-05T06:13:32.143Z,98957.45
2022-12-05T06:23:40.531Z,98958.39
2022-12-05T06:33:46.878Z,98958.50
2022-12-05T06:43:56.253Z,98958.56
2022-12-05T06:54:05.061Z,98961.98
2022-12-05T07:04:15.776Z,98962.60
2022-12-05T07:24:49.197Z,98958.48
2022-12-05T07:34:56.377Z,98963.48
2022-12-05T07:45:03.538Z,98968.85
2022-12-05T07:55:11.584Z,98970.92
2022-12-05T08:05:17.463Z,98967.84
2022-12-05T08:15:24.462Z,98964.11
2022-12-05T08:25:31.189Z,98961.01
2022-12-05T08:35:39.663Z,98967.61
2022-12-05T08:45:51.035Z,98971.00
2022-12-05T08:56:01.259Z,98974.23
2022-12-05T09:06:09.105Z,98977.64
2022-12-05T09:16:19.075Z,98982.73
2022-12-05T09:26:27.770Z,98972.28
2022-12-05T09:36:34.923Z,98962.81
2022-12-05T09:46:47.844Z,98949.75
2022-12-05T09:56:55.775Z,98940.17
2022-12-05T10:07:01.038Z,98927.23
2022-12-05T10:17:06.260Z,98921.98
2022-12-05T10:27:16.532Z,98912.30
2022-12-05T10:37:25.575Z,98913.23
2022-12-05T10:47:34.125Z,98914.20
2022-12-05T10:57:41.993Z,98909.55
2022-12-05T11:07:48.687Z,98894.14
2022-12-05T11:17:58.120Z,98888.21
2022-12-05T11:28:23.937Z,98872.98
2022-12-05T11:38:32.359Z,98878.67
2022-12-05T11:48:48.519Z,98879.20
2022-12-05T11:58:57.862Z,98872.85
2022-12-05T12:09:08.591Z,98872.23
2022-12-05T12:19:18.090Z,98876.83
2022-12-05T12:29:27.190Z,98873.14
2022-12-05T12:39:35.308Z,98866.48
2022-12-05T12:49:44.385Z,98854.95
2022-12-05T12:59:53.448Z,98848.45
2022-12-05T13:10:02.494Z,98855.40
2022-12-05T13:20:15.601Z,98851.08
2022-12-05T13:30:20.454Z,98853.98
2022-12-05T13:40:46.783Z,98857.53
2022-12-05T13:50:53.229Z,98862.25
2022-12-05T14:01:30.852Z,98866.80
2022-12-05T14:11:37.924Z,98867.26
2022-12-05T14:32:04.721Z,98859.40
2022-12-05T14:42:28.121Z,98858.17
2022-12-05T14:52:35.484Z,98853.38
2022-12-05T15:02:48.386Z,98849.20
2022-12-05T15:12:59.226Z,98850.06
2022-12-05T15:23:29.429Z,98852.29
2022-12-05T15:33:37.050Z,98850.67
2022-12-05T15:43:45.880Z,98849.75
2022-12-05T16:04:04.204Z,98856.43
2022-12-05T16:14:21.560Z,98849.37
2022-12-05T16:24:43.078Z,98848.60
2022-12-05T16:34:50.617Z,98847.95
2022-12-05T16:44:57.244Z,98845.95
2022-12-05T16:55:05.009Z,98840.55
2022-12-05T17:05:15.956Z,98834.52
2022-12-05T17:15:21.303Z,98837.72
2022-12-05T17:25:28.684Z,98835.38
2022-12-05T17:35:33.830Z,98835.80
2022-12-05T17:45:41.006Z,98834.08
2022-12-05T17:55:48.969Z,98838.94
2022-12-05T18:05:56.172Z,98836.83
2022-12-05T18:16:03.830Z,98841.91
2022-12-05T18:26:12.166Z,98839.16
2022-12-05T18:36:21.355Z,98833.88
2022-12-05T18:46:26.212Z,98837.64
2022-12-05T18:56:34.991Z,98839.48
2022-12-05T19:06:43.395Z,98839.80
2022-12-05T19:16:58.023Z,98828.66
2022-12-05T19:27:07.598Z,98833.00
2022-12-05T19:37:14.662Z,98840.38
2022-12-05T19:47:21.827Z,98835.31
2022-12-05T19:57:31.450Z,98832.86
2022-12-05T20:07:39.012Z,98826.80
2022-12-05T20:17:52.968Z,98822.97
2022-12-05T20:28:00.922Z,98818.39
2022-12-05T20:38:08.072Z,98812.98
2022-12-05T20:48:15.200Z,98806.96
2022-12-05T20:58:22.445Z,98794.84
2022-12-05T21:08:29.882Z,98793.71
2022-12-05T21:18:37.568Z,98793.91
2022-12-05T21:28:46.019Z,98787.36
2022-12-05T21:38:56.184Z,98783.96
2022-12-05T21:49:03.922Z,98784.40
2022-12-05T21:59:10.965Z,98779.09
2022-12-05T22:09:16.977Z,98783.86
2022-12-05T22:19:24.224Z,98780.22
2022-12-05T22:29:31.252Z,98768.17
2022-12-05T22:39:38.533Z,98755.38
2022-12-05T22:49:45.724Z,98750.05
2022-12-05T22:59:52.802Z,98754.81
2022-12-05T23:10:00.428Z,98755.52
2022-12-05T23:20:08.043Z,98741.89
2022-12-05T23:30:16.793Z,98724.08
2022-12-05T23:40:24.713Z,98714.19
2022-12-05T23:50:32.031Z,98711.61
